createdAt,value
2023-04-05T00:01:25.505Z,1.90
2023-04-05T00:03:28.974Z,1.80
2023-04-05T00:05:30.795Z,1.70
2023-04-05T00:07:34.240Z,1.60
2023-04-05T00:09:36.604Z,1.60
2023-04-05T00:11:44.216Z,1.60
2023-04-05T00:13:45.930Z,1.70
2023-04-05T00:15:48.215Z,1.80
2023-04-05T00:17:50.643Z,1.70
2023-04-05T00:19:57.417Z,1.80
2023-04-05T00:21:59.753Z,1.70
2023-04-05T00:24:01.679Z,1.80
2023-04-05T00:26:03.685Z,1.70
2023-04-05T00:28:05.594Z,1.60
2023-04-05T00:30:07.609Z,1.60
2023-04-05T00:32:09.249Z,1.70
2023-04-05T00:34:12.530Z,1.70
2023-04-05T00:36:18.565Z,1.70
2023-04-05T00:38:20.534Z,1.60
2023-04-05T00:40:22.412Z,1.60
2023-04-05T00:42:24.135Z,1.70
2023-04-05T00:44:26.655Z,1.60
2023-04-05T00:46:28.591Z,1.70
2023-04-05T00:48:30.559Z,1.60
2023-04-05T00:50:32.870Z,1.70
2023-04-05T00:52:35.259Z,1.50
2023-04-05T00:54:39.180Z,1.60
2023-04-05T00:56:41.168Z,1.50
2023-04-05T00:58:43.082Z,1.40
2023-04-05T01:00:47.542Z,1.40
2023-04-05T01:02:51.997Z,1.40
2023-04-05T01:05:01.918Z,1.40
2023-04-05T01:07:11.852Z,1.30
2023-04-05T01:09:13.486Z,1.40
2023-04-05T01:11:16.261Z,1.30
2023-04-05T01:13:18.721Z,1.20
2023-04-05T01:15:20.726Z,1.10
2023-04-05T01:17:29.996Z,1.10
2023-04-05T01:19:35.142Z,1.00
2023-04-05T01:21:39.837Z,1.00
2023-04-05T01:23:45.816Z,0.90
2023-04-05T01:26:06.673Z,0.80
2023-04-05T01:28:41.610Z,0.90
2023-04-05T01:30:45.392Z,0.90
2023-04-05T01:32:53.177Z,0.90
2023-04-05T01:35:10.752Z,1.00
2023-04-05T01:37:13.354Z,1.00
2023-04-05T01:39:17.156Z,1.00
2023-04-05T01:41:19.864Z,1.00
2023-04-05T01:43:22.635Z,0.90
2023-04-05T01:45:24.301Z,0.70
2023-04-05T01:47:27.061Z,0.80
2023-04-05T01:49:28.657Z,0.80
2023-04-05T01:51:31.651Z,0.80
2023-04-05T01:53:33.936Z,0.70
2023-04-05T01:55:35.802Z,0.60
2023-04-05T01:57:39.157Z,0.40
2023-04-05T01:59:40.949Z,0.50
2023-04-05T02:01:42.606Z,0.60
2023-04-05T02:03:44.394Z,0.70
2023-04-05T02:05:46.179Z,0.70
2023-04-05T02:07:48.936Z,0.80
2023-04-05T02:09:50.649Z,0.80
2023-04-05T02:11:52.285Z,0.80
2023-04-05T02:13:53.966Z,0.70
2023-04-05T02:15:55.633Z,0.60
2023-04-05T02:17:57.344Z,0.50
2023-04-05T02:20:02.248Z,0.50
2023-04-05T02:22:03.929Z,0.50
2023-04-05T02:24:05.738Z,0.60
2023-04-05T02:26:08.429Z,0.60
2023-04-05T02:28:11.828Z,0.70
2023-04-05T02:30:14.082Z,0.70
2023-04-05T02:32:15.826Z,0.70
2023-04-05T02:34:17.542Z,0.60
2023-04-05T02:36:19.284Z,0.70
2023-04-05T02:38:20.909Z,0.70
2023-04-05T02:40:23.225Z,0.60
2023-04-05T02:42:24.889Z,0.60
2023-04-05T02:44:26.681Z,0.60
2023-04-05T02:46:28.385Z,0.60
2023-04-05T02:48:30.837Z,0.60
2023-04-05T02:50:32.557Z,0.60
2023-04-05T02:52:34.368Z,0.60
2023-04-05T02:54:36.967Z,0.60
2023-04-05T02:56:38.614Z,0.50
2023-04-05T02:58:41.075Z,0.50
2023-04-05T03:00:46.046Z,0.50
2023-04-05T03:02:47.703Z,0.50
2023-04-05T03:04:52.303Z,0.60
2023-04-05T03:06:54.998Z,0.50
2023-04-05T03:08:56.683Z,0.40
2023-04-05T03:10:58.402Z,0.40
2023-04-05T03:13:00.379Z,0.30
2023-04-05T03:15:02.074Z,0.20
2023-04-05T03:17:03.867Z,0.20
2023-04-05T03:19:06.357Z,0.10
2023-04-05T03:21:12.110Z,0.10
2023-04-05T03:23:13.966Z,0.20
2023-04-05T03:25:17.406Z,0.20
2023-04-05T03:27:19.808Z,0.10
2023-04-05T03:29:22.523Z,0.10
2023-04-05T03:31:24.176Z,0.10
2023-04-05T03:33:25.932Z,0.10
2023-04-05T03:35:28.202Z,0.20
2023-04-05T03:37:30.941Z,0.20
2023-04-05T03:39:32.593Z,0.20
2023-04-05T03:41:34.453Z,0.20
2023-04-05T03:43:36.709Z,0.20
2023-04-05T03:45:38.755Z,0.10
2023-04-05T03:47:40.597Z,0.00
2023-04-05T03:49:42.262Z,0.00
2023-04-05T03:51:43.969Z,0.00
2023-04-05T03:53:46.138Z,0.00
2023-04-05T03:55:49.508Z,-0.10
2023-04-05T03:57:52.196Z,0.00
2023-04-05T03:59:53.860Z,-0.20
2023-04-05T04:01:55.961Z,-0.20
2023-04-05T04:03:57.766Z,-0.20
2023-04-05T04:05:59.588Z,-0.20
2023-04-05T04:08:01.353Z,-0.20
2023-04-05T04:10:04.303Z,-0.20
2023-04-05T04:12:06.236Z,-0.30
2023-04-05T04:14:07.998Z,-0.20
2023-04-05T04:16:09.672Z,-0.20
2023-04-05T04:18:12.096Z,-0.20
2023-04-05T04:20:14.768Z,-0.30
2023-04-05T04:22:20.654Z,-0.40
2023-04-05T04:24:22.333Z,-0.40
2023-04-05T04:26:29.684Z,-0.40
2023-04-05T04:28:34.550Z,-0.40
2023-04-05T04:30:36.155Z,-0.50
2023-04-05T04:32:57.930Z,-0.50
2023-04-05T04:34:59.697Z,-0.60
2023-04-05T04:37:01.322Z,-0.60
2023-04-05T04:39:10.147Z,-0.60
2023-04-05T04:41:11.894Z,-0.70
2023-04-05T04:43:14.450Z,-0.70
2023-04-05T04:45:17.294Z,-0.70
2023-04-05T04:47:21.869Z,-0.70
2023-04-05T04:49:23.842Z,-0.80
2023-04-05T04:51:26.230Z,-0.80
2023-04-05T04:53:27.856Z,-0.80
2023-04-05T04:55:29.583Z,-0.80
2023-04-05T04:57:32.248Z,-0.70
2023-04-05T04:59:33.829Z,-0.60
2023-04-05T05:01:38.016Z,-0.50
2023-04-05T05:03:39.913Z,-0.50
2023-04-05T05:05:46.725Z,-0.60
2023-04-05T05:07:48.690Z,-0.60
2023-04-05T05:09:52.423Z,-0.50
2023-04-05T05:11:54.017Z,-0.60
2023-04-05T05:13:55.742Z,-0.70
2023-04-05T05:15:58.067Z,-0.80
2023-04-05T05:17:59.664Z,-0.80
2023-04-05T05:20:01.712Z,-0.80
2023-04-05T05:22:03.330Z,-0.70
2023-04-05T05:24:07.275Z,-0.60
2023-04-05T05:26:08.965Z,-0.50
2023-04-05T05:28:11.565Z,-0.40
2023-04-05T05:30:13.361Z,-0.40
2023-04-05T05:32:16.854Z,-0.50
2023-04-05T05:34:19.361Z,-0.50
2023-04-05T05:36:21.025Z,-0.50
2023-04-05T05:38:23.551Z,-0.40
2023-04-05T05:40:27.118Z,-0.30
2023-04-05T05:42:28.738Z,-0.40
2023-04-05T05:44:30.514Z,-0.40
2023-04-05T05:46:32.334Z,-0.30
2023-04-05T05:48:34.025Z,-0.40
2023-04-05T05:50:35.800Z,-0.40
2023-04-05T05:52:37.446Z,-0.50
2023-04-05T05:54:39.048Z,-0.50
2023-04-05T05:56:40.794Z,-0.50
2023-04-05T05:58:42.372Z,-0.40
2023-04-05T06:00:44.188Z,-0.40
2023-04-05T06:02:46.611Z,-0.30
2023-04-05T06:04:49.671Z,-0.20
2023-04-05T06:06:51.573Z,-0.10
2023-04-05T06:08:53.295Z,0.00
2023-04-05T06:10:55.132Z,0.00
2023-04-05T06:12:56.756Z,0.10
2023-04-05T06:14:58.417Z,0.10
2023-04-05T06:17:00.169Z,0.20
2023-04-05T06:19:01.801Z,0.20
2023-04-05T06:21:03.484Z,0.40
2023-04-05T06:23:05.278Z,0.40
2023-04-05T06:25:08.582Z,0.40
2023-04-05T06:27:10.221Z,0.50
2023-04-05T06:29:12.214Z,0.50
2023-04-05T06:31:18.552Z,0.50
2023-04-05T06:33:20.237Z,0.50
2023-04-05T06:35:22.329Z,0.60
2023-04-05T06:37:23.964Z,0.60
2023-04-05T06:39:25.744Z,0.70
2023-04-05T06:41:30.730Z,0.70
2023-04-05T06:43:32.702Z,0.80
2023-04-05T06:45:34.405Z,0.90
2023-04-05T06:47:36.673Z,0.90
2023-04-05T06:49:38.259Z,0.90
2023-04-05T06:51:39.916Z,1.00
2023-04-05T06:53:41.835Z,1.00
2023-04-05T06:55:48.885Z,1.10
2023-04-05T06:57:50.687Z,1.10
2023-04-05T06:59:52.724Z,1.20
2023-04-05T07:01:54.352Z,1.20
2023-04-05T07:03:56.271Z,1.30
2023-04-05T07:05:59.155Z,1.30
2023-04-05T07:08:01.696Z,1.50
2023-04-05T07:10:03.365Z,1.60
2023-04-05T07:12:05.984Z,1.50
2023-04-05T07:14:07.555Z,1.50
2023-04-05T07:16:09.221Z,1.60
2023-04-05T07:18:11.081Z,1.80
2023-04-05T07:20:12.830Z,1.70
2023-04-05T07:22:14.518Z,1.80
2023-04-05T07:24:16.253Z,1.70
2023-04-05T07:26:17.807Z,1.80
2023-04-05T07:28:19.416Z,1.80
2023-04-05T07:30:21.347Z,1.80
2023-04-05T07:32:23.221Z,1.80
2023-04-05T07:34:25.024Z,1.80
2023-04-05T07:36:27.247Z,1.90
2023-04-05T07:38:30.080Z,2.10
2023-04-05T07:40:31.734Z,2.10
2023-04-05T07:42:33.752Z,2.20
2023-04-05T07:44:35.356Z,2.20
2023-04-05T07:46:38.590Z,2.50
2023-04-05T07:48:42.260Z,2.50
2023-04-05T07:50:47.738Z,2.50
2023-04-05T07:52:49.442Z,2.60
2023-04-05T07:54:52.125Z,2.70
2023-04-05T07:56:55.298Z,2.80
2023-04-05T07:58:57.229Z,2.90
2023-04-05T08:00:59.386Z,3.00
2023-04-05T08:03:02.334Z,3.00
2023-04-05T08:05:04.829Z,3.10
2023-04-05T08:07:07.476Z,3.10
2023-04-05T08:09:10.439Z,3.20
2023-04-05T08:11:15.700Z,3.30
2023-04-05T08:13:17.376Z,3.40
2023-04-05T08:15:19.068Z,3.40
2023-04-05T08:17:21.843Z,3.60
2023-04-05T08:19:23.507Z,3.70
2023-04-05T08:21:28.173Z,3.70
2023-04-05T08:23:31.366Z,3.80
2023-04-05T08:25:32.945Z,3.80
2023-04-05T08:27:34.586Z,4.10
2023-04-05T08:29:36.214Z,4.20
2023-04-05T08:31:37.883Z,4.20
2023-04-05T08:33:39.624Z,4.30
2023-04-05T08:35:42.949Z,4.30
2023-04-05T08:37:44.734Z,4.50
2023-04-05T08:39:46.376Z,4.60
2023-04-05T08:41:52.678Z,4.90
2023-04-05T08:43:57.966Z,4.90
2023-04-05T08:46:00.939Z,5.00
2023-04-05T08:48:02.640Z,5.10
2023-04-05T08:50:05.142Z,5.00
2023-04-05T08:52:07.890Z,5.10
2023-04-05T08:54:09.691Z,5.20
2023-04-05T08:56:11.487Z,5.10
2023-04-05T08:58:14.580Z,5.30
2023-04-05T09:00:16.854Z,5.30
2023-04-05T09:02:19.519Z,5.30
2023-04-05T09:04:23.290Z,5.30
2023-04-05T09:06:27.203Z,5.30
2023-04-05T09:08:29.834Z,5.50
2023-04-05T09:10:31.489Z,5.70
2023-04-05T09:12:35.340Z,5.90
2023-04-05T09:14:38.422Z,5.80
2023-04-05T09:16:40.744Z,5.90
2023-04-05T09:18:44.245Z,5.90
2023-04-05T09:20:46.549Z,5.90
2023-04-05T09:22:49.260Z,6.00
2023-04-05T09:24:51.100Z,6.20
2023-04-05T09:27:03.383Z,6.30
2023-04-05T09:29:04.928Z,6.40
2023-04-05T09:31:06.649Z,6.30
2023-04-05T09:33:10.467Z,6.30
2023-04-05T09:35:18.758Z,6.60
2023-04-05T09:37:22.618Z,6.70
2023-04-05T09:39:31.628Z,6.80
2023-04-05T09:41:37.643Z,6.90
2023-04-05T09:43:40.055Z,7.10
2023-04-05T09:45:42.420Z,7.30
2023-04-05T09:47:53.528Z,7.10
2023-04-05T09:49:55.837Z,7.10
2023-04-05T09:51:57.493Z,7.30
2023-04-05T09:54:03.468Z,7.10
2023-04-05T09:56:14.351Z,7.30
2023-04-05T09:58:19.779Z,7.60
2023-04-05T10:00:21.927Z,7.80
2023-04-05T10:02:24.312Z,7.70
2023-04-05T10:04:27.028Z,7.70
2023-04-05T10:06:42.072Z,7.60
2023-04-05T10:08:44.875Z,7.70
2023-04-05T10:10:47.153Z,7.90
2023-04-05T10:13:00.822Z,8.00
2023-04-05T10:15:02.619Z,8.10
2023-04-05T10:17:19.288Z,8.30
2023-04-05T10:19:26.624Z,8.40
2023-04-05T10:21:29.779Z,8.60
2023-04-05T10:23:32.310Z,8.80
2023-04-05T10:26:00.109Z,9.10
2023-04-05T10:28:06.209Z,9.30
2023-04-05T10:30:09.209Z,9.30
2023-04-05T10:32:17.610Z,9.30
2023-04-05T10:34:38.516Z,9.60
2023-04-05T10:36:40.252Z,9.70
2023-04-05T10:39:00.400Z,9.30
2023-04-05T10:41:14.700Z,9.40
2023-04-05T10:43:19.181Z,9.60
2023-04-05T10:45:22.487Z,9.80
2023-04-05T10:47:26.642Z,10.00
2023-04-05T10:49:31.367Z,10.30
2023-04-05T10:51:34.112Z,10.30
2023-04-05T10:53:37.545Z,10.30
2023-04-05T10:55:39.309Z,10.50
2023-04-05T10:57:41.705Z,10.60
2023-04-05T10:59:44.527Z,10.80
2023-04-05T11:01:46.512Z,10.70
2023-04-05T11:03:48.977Z,10.30
2023-04-05T11:05:50.725Z,10.70
2023-04-05T11:07:52.622Z,11.30
2023-04-05T11:09:57.556Z,12.90
2023-04-05T11:11:59.202Z,13.70
2023-04-05T11:14:00.800Z,14.20
2023-04-05T11:16:09.010Z,14.10
2023-04-05T11:18:11.025Z,13.70
2023-04-05T11:20:12.902Z,13.50
2023-04-05T11:22:24.466Z,13.90
2023-04-05T11:24:46.089Z,13.10
2023-04-05T11:26:47.663Z,12.80
2023-04-05T11:28:57.202Z,13.10
2023-04-05T11:31:11.497Z,14.50
2023-04-05T11:33:33.103Z,15.20
2023-04-05T11:35:34.800Z,16.60
2023-04-05T11:37:55.508Z,15.80
2023-04-05T11:40:17.100Z,16.00
2023-04-05T11:42:19.011Z,15.90
2023-04-05T11:44:21.469Z,16.60
2023-04-05T11:46:31.805Z,16.60
2023-04-05T11:48:34.742Z,17.70
2023-04-05T11:50:37.109Z,18.30
2023-04-05T11:52:38.736Z,18.20
2023-04-05T11:54:46.135Z,18.40
2023-04-05T11:56:51.422Z,18.60
2023-04-05T11:58:57.866Z,18.10
2023-04-05T12:01:03.636Z,17.60
2023-04-05T12:03:05.417Z,16.10
2023-04-05T12:05:07.240Z,14.10
2023-04-05T12:07:09.352Z,16.10
2023-04-05T12:09:11.008Z,17.80
2023-04-05T12:11:13.303Z,19.00
2023-04-05T12:13:15.076Z,16.30
2023-04-05T12:15:19.508Z,16.70
2023-04-05T12:17:37.098Z,17.30
2023-04-05T12:19:38.824Z,17.70
2023-04-05T12:21:40.480Z,19.00
2023-04-05T12:23:42.139Z,19.80
2023-04-05T12:25:46.690Z,19.60
2023-04-05T12:27:48.446Z,19.20
2023-04-05T12:30:16.154Z,18.00
2023-04-05T12:32:18.481Z,18.00
2023-04-05T12:34:23.873Z,16.50
2023-04-05T12:36:27.651Z,17.80
2023-04-05T12:38:29.802Z,18.40
2023-04-05T12:40:33.766Z,18.10
2023-04-05T12:42:36.170Z,18.60
2023-04-05T12:44:38.056Z,18.90
2023-04-05T12:46:42.931Z,19.80
2023-04-05T12:48:49.773Z,19.30
2023-04-05T12:50:55.145Z,17.60
2023-04-05T12:53:17.791Z,18.80
2023-04-05T12:55:21.287Z,19.60
2023-04-05T12:57:32.485Z,20.00
2023-04-05T12:59:34.282Z,18.70
2023-04-05T13:01:36.059Z,19.30
2023-04-05T13:03:37.870Z,20.90
2023-04-05T13:05:40.884Z,20.00
2023-04-05T13:07:42.673Z,20.00
2023-04-05T13:09:44.261Z,19.70
2023-04-05T13:11:45.968Z,19.20
2023-04-05T13:13:47.582Z,18.60
2023-04-05T13:15:51.407Z,19.20
2023-04-05T13:17:55.057Z,19.30
2023-04-05T13:19:56.841Z,19.60
2023-04-05T13:21:58.500Z,19.60
2023-04-05T13:24:00.375Z,17.60
2023-04-05T13:26:02.087Z,18.40
2023-04-05T13:28:03.680Z,19.90
2023-04-05T13:30:05.679Z,19.30
2023-04-05T13:32:07.327Z,20.10
2023-04-05T13:34:09.185Z,20.90
2023-04-05T13:36:12.471Z,20.50
2023-04-05T13:38:14.536Z,20.90
2023-04-05T13:40:19.097Z,20.50
2023-04-05T13:42:20.768Z,17.20
2023-04-05T13:44:22.460Z,16.30
2023-04-05T13:46:24.148Z,18.50
2023-04-05T13:48:25.848Z,20.40
2023-04-05T13:50:27.561Z,20.90
2023-04-05T13:52:29.824Z,20.90
2023-04-05T13:54:31.594Z,21.10
2023-04-05T13:56:33.238Z,20.30
2023-04-05T13:58:34.920Z,20.90
2023-04-05T14:00:38.110Z,20.90
2023-04-05T14:02:39.910Z,21.20
2023-04-05T14:04:42.019Z,19.50
2023-04-05T14:06:44.107Z,21.10
2023-04-05T14:08:45.861Z,21.30
2023-04-05T14:10:47.601Z,21.80
2023-04-05T14:12:49.376Z,21.20
2023-04-05T14:14:51.152Z,19.60
2023-04-05T14:16:52.923Z,18.50
2023-04-05T14:18:54.796Z,18.20
2023-04-05T14:20:56.603Z,18.20
2023-04-05T14:22:59.392Z,18.50
2023-04-05T14:25:02.768Z,19.20
2023-04-05T14:27:04.476Z,18.90
2023-04-05T14:29:06.366Z,18.00
2023-04-05T14:31:08.097Z,19.60
2023-04-05T14:33:09.917Z,18.70
2023-04-05T14:35:11.657Z,16.40
2023-04-05T14:37:13.261Z,19.10
2023-04-05T14:39:15.028Z,19.40
2023-04-05T14:41:17.016Z,21.00
2023-04-05T14:43:18.725Z,19.70
2023-04-05T14:45:20.424Z,19.40
2023-04-05T14:47:22.141Z,19.60
2023-04-05T14:49:23.879Z,18.80
2023-04-05T14:51:26.734Z,16.50
2023-04-05T14:53:28.470Z,15.80
2023-04-05T14:55:30.457Z,16.50
2023-04-05T14:57:32.121Z,17.90
2023-04-05T14:59:33.856Z,18.10
2023-04-05T15:01:37.060Z,18.80
2023-04-05T15:03:38.995Z,19.90
2023-04-05T15:05:41.060Z,21.40
2023-04-05T15:07:42.716Z,21.90
2023-04-05T15:09:44.355Z,20.10
2023-04-05T15:11:46.006Z,20.50
2023-04-05T15:13:47.640Z,21.20
2023-04-05T15:15:49.363Z,20.90
2023-04-05T15:17:51.177Z,20.10
2023-04-05T15:19:52.901Z,21.30
2023-04-05T15:21:54.638Z,20.40
2023-04-05T15:23:56.414Z,21.90
2023-04-05T15:25:58.098Z,21.50
2023-04-05T15:28:04.170Z,22.00
2023-04-05T15:30:08.384Z,23.50
2023-04-05T15:32:10.215Z,24.20
2023-04-05T15:34:11.843Z,23.60
2023-04-05T15:36:13.654Z,23.60
2023-04-05T15:38:15.349Z,24.10
2023-04-05T15:40:17.074Z,21.50
2023-04-05T15:42:20.900Z,23.50
2023-04-05T15:44:22.585Z,24.00
2023-04-05T15:46:24.261Z,23.40
2023-04-05T15:48:26.045Z,20.20
2023-04-05T15:50:27.728Z,19.10
2023-04-05T15:52:29.418Z,20.60
2023-04-05T15:54:31.147Z,17.30
2023-04-05T15:56:32.789Z,19.00
2023-04-05T15:58:36.583Z,19.90
2023-04-05T16:00:38.389Z,17.40
2023-04-05T16:02:40.460Z,19.30
2023-04-05T16:04:42.222Z,18.60
2023-04-05T16:06:43.906Z,18.10
2023-04-05T16:08:45.581Z,19.70
2023-04-05T16:10:47.288Z,19.70
2023-04-05T16:12:49.016Z,20.70
2023-04-05T16:14:50.656Z,19.70
2023-04-05T16:16:54.485Z,18.40
2023-04-05T16:18:56.680Z,17.00
2023-04-05T16:20:58.716Z,16.90
2023-04-05T16:23:00.407Z,16.80
2023-04-05T16:25:02.019Z,16.30
2023-04-05T16:27:03.984Z,17.90
2023-04-05T16:29:05.732Z,18.30
2023-04-05T16:31:07.414Z,19.20
2023-04-05T16:33:09.105Z,19.00
2023-04-05T16:35:10.941Z,20.40
2023-04-05T16:37:12.596Z,21.10
2023-04-05T16:39:14.442Z,20.30
2023-04-05T16:41:16.226Z,19.90
2023-04-05T16:43:17.917Z,20.10
2023-04-05T16:45:19.732Z,18.80
2023-04-05T16:47:21.398Z,16.50
2023-04-05T16:49:23.125Z,15.00
2023-04-05T16:51:24.799Z,14.10
2023-04-05T16:53:26.505Z,14.70
2023-04-05T16:55:28.198Z,15.80
2023-04-05T16:57:29.933Z,13.50
2023-04-05T16:59:31.597Z,12.80
2023-04-05T17:01:33.324Z,12.00
2023-04-05T17:03:35.061Z,11.90
2023-04-05T17:05:38.265Z,11.50
2023-04-05T17:07:41.346Z,11.60
2023-04-05T17:09:43.053Z,11.30
2023-04-05T17:11:44.805Z,11.10
2023-04-05T17:13:48.269Z,11.10
2023-04-05T17:15:49.984Z,11.10
2023-04-05T17:17:51.951Z,10.90
2023-04-05T17:19:53.712Z,11.00
2023-04-05T17:21:55.516Z,11.10
2023-04-05T17:23:57.136Z,10.90
2023-04-05T17:25:58.939Z,10.50
2023-04-05T17:28:00.693Z,10.60
2023-04-05T17:30:02.499Z,10.60
2023-04-05T17:32:04.244Z,10.70
2023-04-05T17:34:06.176Z,10.60
2023-04-05T17:36:08.167Z,10.50
2023-04-05T17:38:10.261Z,10.30
2023-04-05T17:40:12.311Z,10.20
2023-04-05T17:42:13.956Z,10.30
2023-04-05T17:44:15.777Z,10.10
2023-04-05T17:46:27.337Z,10.00
2023-04-05T17:48:36.535Z,9.90
2023-04-05T17:50:38.264Z,9.70
2023-04-05T17:52:39.900Z,9.60
2023-04-05T17:54:42.102Z,9.60
2023-04-05T17:56:43.829Z,9.60
2023-04-05T17:58:45.892Z,9.40
2023-04-05T18:00:49.845Z,9.20
2023-04-05T18:02:52.054Z,9.00
2023-04-05T18:04:54.179Z,8.80
2023-04-05T18:06:56.327Z,8.70
2023-04-05T18:08:58.002Z,8.70
2023-04-05T18:11:00.144Z,8.50
2023-04-05T18:13:03.393Z,8.40
2023-04-05T18:15:07.214Z,8.30
2023-04-05T18:17:08.916Z,8.10
2023-04-05T18:19:10.570Z,7.90
2023-04-05T18:21:12.251Z,7.80
2023-04-05T18:23:13.980Z,7.70
2023-04-05T18:25:15.795Z,7.60
2023-04-05T18:27:17.840Z,7.50
2023-04-05T18:29:19.509Z,7.40
2023-04-05T18:31:23.140Z,7.40
2023-04-05T18:33:25.056Z,7.30
2023-04-05T18:35:27.282Z,7.20
2023-04-05T18:37:29.054Z,7.10
2023-04-05T18:39:30.842Z,7.10
2023-04-05T18:41:32.488Z,7.00
2023-04-05T18:43:34.255Z,6.90
2023-04-05T18:45:39.158Z,6.80
2023-04-05T18:47:41.100Z,6.80
2023-04-05T18:49:42.792Z,6.70
2023-04-05T18:51:45.262Z,6.60
2023-04-05T18:53:46.934Z,6.50
2023-04-05T18:55:52.452Z,6.60
2023-04-05T18:57:54.174Z,6.60
2023-04-05T18:59:56.126Z,6.60
2023-04-05T19:01:57.889Z,6.60
2023-04-05T19:04:00.570Z,6.60
2023-04-05T19:06:02.262Z,6.40
2023-04-05T19:08:04.045Z,6.50
2023-04-05T19:10:06.122Z,6.40
2023-04-05T19:12:07.816Z,6.40
2023-04-05T19:14:09.529Z,6.30
2023-04-05T19:16:11.413Z,6.20
2023-04-05T19:18:13.555Z,6.20
2023-04-05T19:20:15.319Z,6.10
2023-04-05T19:22:16.969Z,6.00
2023-04-05T19:24:20.861Z,5.90
2023-04-05T19:26:22.822Z,5.80
2023-04-05T19:28:25.953Z,5.80
2023-04-05T19:30:27.653Z,5.80
2023-04-05T19:32:29.368Z,5.70
2023-04-05T19:34:31.131Z,5.70
2023-04-05T19:36:36.563Z,5.60
2023-04-05T19:38:39.574Z,5.50
2023-04-05T19:40:42.219Z,5.50
2023-04-05T19:42:47.483Z,5.50
2023-04-05T19:44:54.908Z,5.50
2023-04-05T19:46:56.588Z,5.40
2023-04-05T19:49:03.522Z,5.40
2023-04-05T19:51:09.162Z,5.30
2023-04-05T19:53:28.600Z,5.30
2023-04-05T19:55:44.977Z,5.30
2023-04-05T19:57:47.280Z,5.20
2023-04-05T19:59:49.014Z,5.20
2023-04-05T20:01:50.954Z,5.10
2023-04-05T20:03:52.617Z,5.10
2023-04-05T20:05:57.530Z,5.10
2023-04-05T20:07:59.631Z,5.00
2023-04-05T20:10:01.514Z,5.00
2023-04-05T20:12:05.608Z,5.00
2023-04-05T20:14:08.798Z,5.00
2023-04-05T20:16:11.997Z,4.90
2023-04-05T20:18:18.378Z,4.90
2023-04-05T20:20:20.343Z,4.80
2023-04-05T20:22:22.326Z,4.80
2023-04-05T20:24:25.421Z,4.70
2023-04-05T20:26:29.846Z,4.60
2023-04-05T20:28:42.073Z,4.80
2023-04-05T20:30:43.803Z,4.70
2023-04-05T20:32:45.559Z,4.70
2023-04-05T20:34:47.327Z,4.70
2023-04-05T20:36:52.887Z,4.60
2023-04-05T20:38:54.675Z,4.60
2023-04-05T20:40:56.668Z,4.50
2023-04-05T20:42:58.321Z,4.40
2023-04-05T20:45:00.060Z,4.50
2023-04-05T20:47:01.731Z,4.40
2023-04-05T20:49:03.525Z,4.50
2023-04-05T20:51:06.890Z,4.40
2023-04-05T20:53:08.681Z,4.40
2023-04-05T20:55:14.001Z,4.30
2023-04-05T20:57:16.050Z,4.20
2023-04-05T20:59:17.887Z,4.30
2023-04-05T21:01:19.958Z,4.30
2023-04-05T21:03:25.331Z,4.20
2023-04-05T21:05:27.014Z,4.20
2023-04-05T21:07:28.723Z,4.20
2023-04-05T21:09:30.688Z,4.20
2023-04-05T21:11:32.660Z,4.10
2023-04-05T21:13:35.413Z,4.10
2023-04-05T21:15:37.212Z,4.30
2023-04-05T21:17:40.136Z,4.30
2023-04-05T21:19:41.937Z,4.30
2023-04-05T21:21:43.955Z,4.10
2023-04-05T21:23:45.981Z,4.00
2023-04-05T21:25:47.993Z,4.00
2023-04-05T21:27:49.932Z,3.90
2023-04-05T21:29:51.748Z,3.90
2023-04-05T21:31:53.561Z,3.90
2023-04-05T21:33:55.305Z,3.90
2023-04-05T21:35:57.255Z,3.70
2023-04-05T21:37:58.995Z,3.60
2023-04-05T21:40:02.368Z,3.80
2023-04-05T21:42:04.065Z,3.80
2023-04-05T21:44:05.800Z,3.70
2023-04-05T21:46:07.523Z,3.60
2023-04-05T21:48:11.472Z,3.70
2023-04-05T21:50:13.342Z,3.70
2023-04-05T21:52:15.443Z,3.80
2023-04-05T21:54:17.107Z,3.90
2023-04-05T21:56:19.209Z,3.80
2023-04-05T21:58:21.208Z,3.70
2023-04-05T22:00:23.580Z,3.50
2023-04-05T22:02:25.515Z,3.40
2023-04-05T22:04:28.999Z,3.30
2023-04-05T22:06:30.966Z,3.30
2023-04-05T22:08:34.321Z,3.30
2023-04-05T22:10:36.416Z,3.30
2023-04-05T22:12:38.161Z,3.30
2023-04-05T22:14:39.794Z,3.40
2023-04-05T22:16:41.734Z,3.40
2023-04-05T22:18:44.162Z,3.30
2023-04-05T22:20:45.850Z,3.30
2023-04-05T22:22:47.809Z,3.20
2023-04-05T22:24:49.546Z,3.10
2023-04-05T22:26:51.965Z,3.00
2023-04-05T22:28:53.685Z,2.90
2023-04-05T22:30:55.667Z,2.80
2023-04-05T22:32:57.413Z,2.70
2023-04-05T22:34:59.194Z,2.60
2023-04-05T22:37:01.029Z,2.60
2023-04-05T22:39:02.762Z,2.70
2023-04-05T22:41:04.625Z,2.70
2023-04-05T22:43:06.603Z,2.60
2023-04-05T22:45:09.034Z,2.60
2023-04-05T22:47:10.843Z,2.50
2023-04-05T22:49:13.664Z,2.50
2023-04-05T22:51:15.556Z,2.60
2023-04-05T22:53:17.306Z,2.60
2023-04-05T22:55:24.699Z,2.40
2023-04-05T22:57:26.695Z,2.30
2023-04-05T22:59:28.424Z,2.40
2023-04-05T23:01:30.504Z,2.40
2023-04-05T23:03:35.372Z,2.40
2023-04-05T23:05:38.448Z,2.30
2023-04-05T23:07:40.182Z,2.20
2023-04-05T23:09:41.984Z,2.10
2023-04-05T23:11:43.666Z,2.00
2023-04-05T23:13:45.449Z,2.00
2023-04-05T23:15:47.093Z,2.20
2023-04-05T23:17:49.720Z,2.30
2023-04-05T23:19:51.581Z,2.20
2023-04-05T23:21:55.471Z,2.10
2023-04-05T23:23:58.244Z,2.00
2023-04-05T23:25:59.886Z,1.90
2023-04-05T23:28:01.596Z,1.90
2023-04-05T23:30:03.423Z,1.80
2023-04-05T23:32:06.791Z,1.80
2023-04-05T23:34:08.666Z,1.80
2023-04-05T23:36:10.795Z,1.80
2023-04-05T23:38:12.626Z,1.80
2023-04-05T23:40:14.487Z,1.80
2023-04-05T23:42:16.516Z,1.80
2023-04-05T23:44:18.233Z,1.70
2023-04-05T23:46:20.014Z,1.70
2023-04-05T23:48:21.734Z,1.70
2023-04-05T23:50:23.533Z,1.60
2023-04-05T23:52:25.624Z,1.60
2023-04-05T23:54:27.271Z,1.60
2023-04-05T23:56:29.031Z,1.60
2023-04-05T23:58:30.853Z,1.60
